Time;durP1;ratioP1;P1;durP2;ratioP2;P2;SDS_P1;SDS_P2;PMS_P1;PMS_P2;Temp;Humidity;BMP_temperature;BMP_pressure;BME280_temperature;BME280_humidity;BME280_pressure;Samples;Min_cycle;Max_cycle;Signal;HPM_P1;HPM_P2
2023/01/15 00:00:46;;;;;;;2.92;1.90;;;;;;;;;;5021516;28;20049;-70
2023/01/15 00:03:11;;;;;;;4.88;2.33;;;;;;;;;;5022223;28;20056;-68
2023/01/15 00:05:37;;;;;;;3.03;2.08;;;;;;;;;;5022488;28;20088;-71
2023/01/15 00:08:03;;;;;;;2.75;1.88;;;;;;;;;;5020866;28;20952;-70
2023/01/15 00:10:28;;;;;;;2.90;1.80;;;;;;;;;;5022249;28;20052;-70
2023/01/15 00:12:53;;;;;;;3.58;2.10;;;;;;;;;;5021791;28;20371;-70
2023/01/15 00:15:19;;;;;;;4.25;2.25;;;;;;;;;;5022125;28;20045;-71
2023/01/15 00:17:44;;;;;;;3.15;1.80;;;;;;;;;;5021133;28;20395;-69
2023/01/15 00:20:10;;;;;;;3.25;2.05;;;;;;;;;;5021761;28;20045;-69
2023/01/15 00:22:36;;;;;;;4.00;1.92;;;;;;;;;;5036226;28;20460;-71
2023/01/15 00:27:47;;;;;;;3.60;2.05;;;;;;;;;;5021802;28;20163;-68
2023/01/15 00:30:15;;;;;;;2.80;1.90;;;;;;;;;;5019798;28;20094;-68
2023/01/15 00:32:42;;;;;;;2.75;1.90;;;;;;;;;;5020388;28;20045;-70
2023/01/15 00:35:19;;;;;;;3.65;2.00;;;;;;;;;;5021013;28;20049;-70
2023/01/15 00:37:45;;;;;;;2.35;1.88;;;;;;;;;;5021273;28;20077;-69
2023/01/15 00:40:12;;;;;;;3.25;1.90;;;;;;;;;;5035743;28;20092;-70
2023/01/15 00:42:37;;;;;;;3.58;2.00;;;;;;;;;;5035855;28;20052;-69
2023/01/15 00:45:08;;;;;;;3.60;2.50;;;;;;;;;;5022234;28;20033;-68
2023/01/15 00:47:44;;;;;;;5.13;2.58;;;;;;;;;;5021308;28;20049;-67
2023/01/15 00:50:12;;;;;;;3.33;2.40;;;;;;;;;;5018598;28;20059;-69
2023/01/15 00:52:38;;;;;;;3.70;2.25;;;;;;;;;;5020402;28;20045;-70
2023/01/15 00:55:04;;;;;;;4.68;2.03;;;;;;;;;;5021305;28;20068;-69
2023/01/15 00:57:30;;;;;;;2.42;2.03;;;;;;;;;;5021341;28;20037;-69
2023/01/15 00:59:56;;;;;;;2.00;1.63;;;;;;;;;;5036614;28;20055;-68
2023/01/15 01:02:21;;;;;;;2.08;1.80;;;;;;;;;;5034091;28;20183;-69
2023/01/15 01:04:47;;;;;;;3.60;1.90;;;;;;;;;;5021120;28;20612;-67
2023/01/15 01:07:14;;;;;;;1.88;1.73;;;;;;;;;;5036694;28;20680;-68
2023/01/15 01:09:40;;;;;;;2.97;2.22;;;;;;;;;;5019445;28;20041;-67
2023/01/15 01:12:06;;;;;;;3.03;1.90;;;;;;;;;;5018967;28;20045;-67
2023/01/15 01:14:31;;;;;;;2.95;2.00;;;;;;;;;;5019163;28;20045;-69
2023/01/15 01:16:57;;;;;;;5.00;2.20;;;;;;;;;;5035968;28;20045;-69
2023/01/15 01:19:24;;;;;;;2.67;2.20;;;;;;;;;;5020913;28;20406;-68
2023/01/15 01:21:50;;;;;;;3.05;2.22;;;;;;;;;;5020065;28;20072;-69
2023/01/15 01:24:18;;;;;;;3.28;2.17;;;;;;;;;;5019627;28;20046;-70
2023/01/15 01:26:44;;;;;;;3.80;2.60;;;;;;;;;;5020399;28;20049;-69
2023/01/15 01:29:15;;;;;;;2.65;2.03;;;;;;;;;;5012165;28;20064;-68
2023/01/15 01:31:41;;;;;;;2.95;2.10;;;;;;;;;;5016774;28;20041;-68
2023/01/15 01:34:08;;;;;;;2.40;2.20;;;;;;;;;;5018070;28;20971;-68
2023/01/15 01:36:36;;;;;;;5.47;2.10;;;;;;;;;;5019125;28;20132;-68
2023/01/15 01:39:02;;;;;;;3.85;2.10;;;;;;;;;;5019162;28;20056;-69
2023/01/15 01:41:28;;;;;;;3.40;2.30;;;;;;;;;;5017742;28;20045;-68
2023/01/15 01:43:55;;;;;;;2.10;1.77;;;;;;;;;;5035738;28;20438;-67
2023/01/15 01:46:20;;;;;;;2.55;2.15;;;;;;;;;;5034278;28;20081;-67
2023/01/15 01:48:48;;;;;;;2.58;2.17;;;;;;;;;;5019471;28;20169;-69
2023/01/15 01:51:14;;;;;;;3.33;2.03;;;;;;;;;;5018790;28;20053;-69
2023/01/15 01:53:40;;;;;;;6.15;2.78;;;;;;;;;;5018849;28;20067;-67
2023/01/15 01:56:10;;;;;;;2.70;2.10;;;;;;;;;;5018419;28;20093;-69
2023/01/15 01:58:36;;;;;;;2.45;1.85;;;;;;;;;;5035804;28;20045;-68
2023/01/15 02:01:03;;;;;;;2.10;1.90;;;;;;;;;;5034633;28;20050;-67
2023/01/15 02:03:34;;;;;;;4.05;2.10;;;;;;;;;;5019976;28;20053;-68
2023/01/15 02:06:04;;;;;;;3.05;2.15;;;;;;;;;;5019538;28;20077;-69
2023/01/15 02:08:31;;;;;;;5.05;1.73;;;;;;;;;;5020447;28;20120;-68
2023/01/15 02:10:57;;;;;;;4.53;2.05;;;;;;;;;;5019186;28;20831;-71
2023/01/15 02:13:57;;;;;;;3.25;2.35;;;;;;;;;;5019653;28;20454;-67
2023/01/15 02:16:28;;;;;;;2.28;1.83;;;;;;;;;;5034466;28;20099;-68
2023/01/15 02:19:44;;;;;;;4.35;1.63;;;;;;;;;;5018683;28;20051;-68
2023/01/15 02:22:25;;;;;;;2.05;1.63;;;;;;;;;;4977173;28;20068;-67
2023/01/15 02:25:03;;;;;;;1.77;1.63;;;;;;;;;;4983809;28;20047;-67
2023/01/15 02:27:29;;;;;;;2.63;1.80;;;;;;;;;;5005630;28;20125;-67
2023/01/15 02:30:06;;;;;;;3.10;1.60;;;;;;;;;;5019846;28;20041;-67
2023/01/15 02:32:50;;;;;;;2.55;1.60;;;;;;;;;;5010121;28;20041;-67
2023/01/15 02:35:22;;;;;;;3.65;1.50;;;;;;;;;;5034379;28;20103;-67
2023/01/15 02:37:52;;;;;;;4.68;1.70;;;;;;;;;;5012851;28;20052;-67
2023/01/15 02:40:21;;;;;;;;;;;;;;;;;;5018139;28;20044;-67
2023/01/15 02:42:49;;;;;;;1.52;1.35;;;;;;;;;;5017955;28;19921;-67
2023/01/15 02:45:23;;;;;;;1.65;1.40;;;;;;;;;;5035166;28;20037;-67
2023/01/15 02:47:51;;;;;;;2.50;1.70;;;;;;;;;;5017793;28;20049;-67
2023/01/15 02:50:21;;;;;;;1.98;1.48;;;;;;;;;;5019241;28;20884;-67
2023/01/15 02:52:50;;;;;;;3.08;1.70;;;;;;;;;;5034358;28;20056;-67
2023/01/15 02:55:28;;;;;;;2.28;1.83;;;;;;;;;;5018272;28;20395;-66
2023/01/15 02:57:57;;;;;;;1.98;1.60;;;;;;;;;;5037093;28;20045;-68
2023/01/15 03:00:24;;;;;;;1.95;1.60;;;;;;;;;;5021726;28;20054;-67
2023/01/15 03:02:57;;;;;;;3.10;1.70;;;;;;;;;;5021587;28;20053;-68
2023/01/15 03:05:30;;;;;;;3.40;1.55;;;;;;;;;;5022184;28;20497;-68
2023/01/15 03:07:59;;;;;;;2.33;1.58;;;;;;;;;;5038628;28;20052;-67
2023/01/15 03:11:02;;;;;;;7.13;1.90;;;;;;;;;;5020653;28;20049;-67
2023/01/15 03:13:42;;;;;;;2.75;1.80;;;;;;;;;;5022023;28;20518;-68
2023/01/15 03:16:44;;;;;;;2.90;1.80;;;;;;;;;;5023029;28;20045;-68
2023/01/15 03:19:24;;;;;;;2.85;1.67;;;;;;;;;;5022246;28;20080;-68
2023/01/15 03:21:55;;;;;;;2.95;2.10;;;;;;;;;;5037439;28;20375;-68
2023/01/15 03:24:45;;;;;;;2.22;1.60;;;;;;;;;;5021213;28;20056;-69
2023/01/15 03:27:11;;;;;;;3.58;1.92;;;;;;;;;;5038813;28;20683;-68
2023/01/15 03:29:43;;;;;;;1.95;1.70;;;;;;;;;;5021633;28;20045;-68
2023/01/15 03:32:10;;;;;;;2.17;1.48;;;;;;;;;;5035956;28;20088;-68
2023/01/15 03:34:41;;;;;;;3.05;1.50;;;;;;;;;;5023096;28;20075;-67
2023/01/15 03:37:07;;;;;;;1.88;1.67;;;;;;;;;;5022769;28;20056;-67
2023/01/15 03:39:33;;;;;;;4.30;1.60;;;;;;;;;;5038684;28;20109;-67
2023/01/15 03:42:40;;;;;;;3.33;1.73;;;;;;;;;;5035745;28;20119;-68
2023/01/15 03:45:22;;;;;;;2.78;1.58;;;;;;;;;;5035028;28;20048;-67
2023/01/15 03:48:20;;;;;;;2.38;1.77;;;;;;;;;;5037740;28;20033;-68
2023/01/15 03:50:50;;;;;;;2.67;1.67;;;;;;;;;;5020317;28;20059;-69
2023/01/15 03:53:27;;;;;;;1.88;1.25;;;;;;;;;;5036263;28;20045;-69
2023/01/15 03:56:08;;;;;;;3.40;1.42;;;;;;;;;;5021414;28;20533;-68
2023/01/15 03:58:48;;;;;;;1.60;1.50;;;;;;;;;;5044866;28;20037;-69
2023/01/15 04:01:20;;;;;;;1.33;1.08;;;;;;;;;;5037051;28;20099;-68
2023/01/15 04:03:48;;;;;;;1.30;1.20;;;;;;;;;;5037018;28;20133;-67
2023/01/15 04:06:16;;;;;;;1.80;1.30;;;;;;;;;;5036685;28;20053;-66
2023/01/15 04:08:44;;;;;;;1.63;1.33;;;;;;;;;;5021697;28;20045;-67
2023/01/15 04:11:10;;;;;;;1.92;1.40;;;;;;;;;;5020043;28;20103;-67
2023/01/15 04:13:41;;;;;;;1.52;1.10;;;;;;;;;;5037573;28;20050;-66
2023/01/15 04:16:28;;;;;;;1.35;1.25;;;;;;;;;;5036091;28;20052;-66
2023/01/15 04:18:54;;;;;;;2.70;1.80;;;;;;;;;;5021012;28;20044;-67
2023/01/15 04:21:20;;;;;;;1.45;1.35;;;;;;;;;;5019751;28;20058;-66
2023/01/15 04:23:45;;;;;;;1.45;1.13;;;;;;;;;;5021864;28;20041;-67
2023/01/15 04:26:11;;;;;;;1.70;1.60;;;;;;;;;;5020658;28;20095;-66
2023/01/15 04:28:37;;;;;;;1.65;1.42;;;;;;;;;;5022174;28;20413;-67
2023/01/15 04:31:02;;;;;;;1.85;1.48;;;;;;;;;;5021210;28;20060;-67
2023/01/15 04:33:28;;;;;;;1.80;1.52;;;;;;;;;;5021776;28;20092;-67
2023/01/15 04:35:53;;;;;;;2.30;1.63;;;;;;;;;;5020570;28;20038;-67
2023/01/15 04:38:18;;;;;;;2.30;2.10;;;;;;;;;;5031938;28;20053;-67
2023/01/15 04:46:12;;;;;;;4.65;3.30;;;;;;;;;;5019767;28;20493;-66
2023/01/15 04:48:39;;;;;;;2.90;2.20;;;;;;;;;;5020308;28;20037;-66
2023/01/15 04:51:06;;;;;;;2.60;1.90;;;;;;;;;;5019133;28;20045;-66
2023/01/15 04:53:32;;;;;;;1.42;1.27;;;;;;;;;;5021400;28;20045;-67
2023/01/15 04:56:04;;;;;;;2.05;1.20;;;;;;;;;;5021958;28;20145;-67
2023/01/15 04:58:31;;;;;;;1.42;1.30;;;;;;;;;;5020162;28;20615;-67
2023/01/15 05:00:59;;;;;;;1.55;1.45;;;;;;;;;;5020851;28;20049;-68
2023/01/15 05:03:28;;;;;;;1.58;1.48;;;;;;;;;;5020412;28;20049;-69
2023/01/15 05:05:53;;;;;;;4.47;1.40;;;;;;;;;;5035964;28;20041;-68
2023/01/15 05:08:19;;;;;;;1.90;1.70;;;;;;;;;;5020371;28;20064;-68
2023/01/15 05:10:44;;;;;;;1.55;1.45;;;;;;;;;;5020237;28;20099;-67
2023/01/15 05:13:09;;;;;;;1.60;1.45;;;;;;;;;;5020633;28;20077;-67
2023/01/15 05:15:37;;;;;;;1.80;1.38;;;;;;;;;;5020583;28;20136;-67
2023/01/15 05:18:03;;;;;;;2.47;1.60;;;;;;;;;;5018894;28;20057;-66
2023/01/15 05:20:28;;;;;;;1.40;1.30;;;;;;;;;;5019883;28;20053;-67
2023/01/15 05:22:54;;;;;;;1.83;1.15;;;;;;;;;;5020181;28;20056;-67
2023/01/15 05:25:19;;;;;;;2.17;1.60;;;;;;;;;;5020759;28;20076;-67
2023/01/15 05:27:44;;;;;;;2.67;1.75;;;;;;;;;;5021147;28;20053;-67
2023/01/15 05:30:10;;;;;;;2.10;1.27;;;;;;;;;;5020305;28;20053;-67
2023/01/15 05:32:36;;;;;;;1.75;1.33;;;;;;;;;;5018809;28;20045;-67
2023/01/15 05:35:01;;;;;;;0.88;0.85;;;;;;;;;;5020930;28;20037;-67
2023/01/15 05:37:29;;;;;;;1.65;1.20;;;;;;;;;;5020760;28;20105;-66
2023/01/15 05:39:54;;;;;;;1.40;1.10;;;;;;;;;;5021239;28;20037;-67
2023/01/15 05:42:20;;;;;;;1.33;1.08;;;;;;;;;;5018051;28;20544;-66
2023/01/15 05:44:45;;;;;;;1.73;1.50;;;;;;;;;;5021067;28;20045;-66
2023/01/15 05:47:10;;;;;;;2.20;1.23;;;;;;;;;;5020645;28;20076;-67
2023/01/15 05:49:36;;;;;;;2.47;1.48;;;;;;;;;;5020493;28;20041;-67
2023/01/15 05:52:02;;;;;;;1.20;1.10;;;;;;;;;;5018957;28;20045;-66
2023/01/15 05:54:31;;;;;;;1.30;1.20;;;;;;;;;;5019763;28;20132;-67
2023/01/15 05:56:57;;;;;;;1.30;1.13;;;;;;;;;;5019850;28;20050;-67
2023/01/15 05:59:24;;;;;;;1.20;1.10;;;;;;;;;;5020491;28;20059;-66
2023/01/15 06:01:50;;;;;;;1.23;1.13;;;;;;;;;;5019295;28;20049;-66
2023/01/15 06:04:19;;;;;;;1.42;1.08;;;;;;;;;;5018982;28;20045;-66
2023/01/15 06:06:46;;;;;;;1.35;1.13;;;;;;;;;;5020024;28;20045;-67
2023/01/15 06:09:12;;;;;;;1.70;1.48;;;;;;;;;;5020222;28;20048;-67
2023/01/15 06:11:37;;;;;;;1.67;1.20;;;;;;;;;;5019387;28;20033;-66
2023/01/15 06:14:03;;;;;;;2.75;1.35;;;;;;;;;;5034949;28;20445;-66
2023/01/15 06:16:28;;;;;;;2.05;1.60;;;;;;;;;;5019320;28;20055;-66
2023/01/15 06:18:54;;;;;;;3.92;2.13;;;;;;;;;;5020054;28;20041;-66
2023/01/15 06:21:19;;;;;;;2.20;1.60;;;;;;;;;;5019323;28;21171;-66
2023/01/15 06:23:45;;;;;;;2.50;1.80;;;;;;;;;;5019749;28;20041;-66
2023/01/15 06:26:16;;;;;;;2.00;1.80;;;;;;;;;;5019016;28;20049;-66
2023/01/15 06:28:42;;;;;;;2.35;1.80;;;;;;;;;;5019970;28;20124;-69
2023/01/15 06:31:11;;;;;;;2.17;1.60;;;;;;;;;;5020683;28;20060;-69
2023/01/15 06:33:37;;;;;;;3.85;1.45;;;;;;;;;;5023773;28;20042;-71
2023/01/15 06:36:08;;;;;;;1.90;1.70;;;;;;;;;;5038359;28;20057;-71
2023/01/15 06:38:34;;;;;;;3.47;1.67;;;;;;;;;;5023088;28;20080;-69
2023/01/15 06:41:01;;;;;;;1.63;1.52;;;;;;;;;;5023256;28;20452;-66
2023/01/15 06:48:55;;;;;;;2.15;1.85;;;;;;;;;;5021233;28;20382;-69
2023/01/15 06:51:20;;;;;;;2.65;1.80;;;;;;;;;;5021740;28;21127;-69
2023/01/15 06:53:46;;;;;;;3.13;2.20;;;;;;;;;;5022722;28;20046;-69
2023/01/15 06:56:13;;;;;;;3.17;2.22;;;;;;;;;;5021711;28;20053;-68
2023/01/15 06:58:40;;;;;;;3.88;2.08;;;;;;;;;;5022732;28;20134;-69
2023/01/15 07:01:10;;;;;;;2.00;1.80;;;;;;;;;;5021328;28;20077;-70
2023/01/15 07:03:36;;;;;;;2.22;1.92;;;;;;;;;;5021957;28;20530;-68
2023/01/15 07:06:09;;;;;;;2.85;1.88;;;;;;;;;;5021940;28;20048;-70
2023/01/15 07:08:35;;;;;;;3.08;2.53;;;;;;;;;;5022258;28;20493;-69
2023/01/15 07:11:05;;;;;;;3.42;2.75;;;;;;;;;;5021493;28;20049;-70
2023/01/15 07:13:31;;;;;;;2.75;2.22;;;;;;;;;;5021645;28;20103;-70
2023/01/15 07:16:01;;;;;;;2.13;1.70;;;;;;;;;;5022084;28;20033;-70
2023/01/15 07:18:28;;;;;;;2.30;1.60;;;;;;;;;;5021598;28;20057;-69
2023/01/15 07:20:55;;;;;;;2.20;2.00;;;;;;;;;;5022271;28;20041;-69
2023/01/15 07:23:22;;;;;;;2.72;1.83;;;;;;;;;;5035537;28;20084;-69
2023/01/15 07:25:47;;;;;;;2.35;1.95;;;;;;;;;;5015075;28;20809;-70
2023/01/15 07:28:13;;;;;;;2.15;1.95;;;;;;;;;;5019235;28;20085;-69
2023/01/15 07:30:38;;;;;;;3.90;2.10;;;;;;;;;;5021306;28;20048;-70
2023/01/15 07:33:04;;;;;;;2.15;2.00;;;;;;;;;;5019723;28;20041;-69
2023/01/15 07:35:29;;;;;;;3.03;2.22;;;;;;;;;;5021357;28;20037;-68
2023/01/15 07:37:55;;;;;;;1.90;1.80;;;;;;;;;;5020087;28;20136;-69
2023/01/15 07:40:21;;;;;;;2.38;2.10;;;;;;;;;;5020870;28;20057;-70
2023/01/15 07:50:58;;;;;;;2.10;1.90;;;;;;;;;;5021524;28;20038;-69
2023/01/15 07:53:23;;;;;;;7.25;2.45;;;;;;;;;;5018740;28;20509;-68
2023/01/15 07:55:49;;;;;;;2.50;2.10;;;;;;;;;;5020272;28;20045;-69
2023/01/15 07:58:14;;;;;;;2.90;2.53;;;;;;;;;;5019789;28;20858;-69
2023/01/15 08:00:40;;;;;;;2.72;2.00;;;;;;;;;;5020352;28;20045;-69
2023/01/15 08:03:05;;;;;;;2.53;2.33;;;;;;;;;;5019074;28;20083;-69
2023/01/15 08:05:31;;;;;;;2.35;2.15;;;;;;;;;;5034418;28;20069;-68
2023/01/15 08:07:56;;;;;;;2.33;2.13;;;;;;;;;;5019806;28;20041;-68
2023/01/15 08:10:24;;;;;;;3.03;2.25;;;;;;;;;;5018773;28;20437;-68
2023/01/15 08:15:38;;;;;;;3.00;2.08;;;;;;;;;;5016757;28;20577;-69
2023/01/15 08:18:04;;;;;;;2.40;1.85;;;;;;;;;;5018418;28;20087;-68
2023/01/15 08:20:29;;;;;;;2.30;2.10;;;;;;;;;;5027553;28;20069;-68
2023/01/15 08:22:55;;;;;;;3.75;2.17;;;;;;;;;;5018864;28;20790;-67
2023/01/15 08:25:23;;;;;;;3.85;2.38;;;;;;;;;;5019304;28;20084;-69
2023/01/15 08:27:49;;;;;;;5.78;2.75;;;;;;;;;;5018298;28;20052;-69
2023/01/15 08:30:20;;;;;;;4.82;2.80;;;;;;;;;;5018301;28;20130;-71
2023/01/15 08:32:46;;;;;;;3.92;2.47;;;;;;;;;;5019112;28;20045;-69
2023/01/15 08:35:12;;;;;;;2.83;2.20;;;;;;;;;;5018064;28;20037;-69
2023/01/15 08:37:38;;;;;;;2.83;2.22;;;;;;;;;;5017132;28;20056;-68
2023/01/15 08:40:04;;;;;;;4.55;3.15;;;;;;;;;;5017542;28;20030;-69
2023/01/15 08:42:30;;;;;;;8.40;3.22;;;;;;;;;;5018686;28;20052;-69
2023/01/15 08:44:55;;;;;;;4.32;3.20;;;;;;;;;;5020738;28;20489;-69
2023/01/15 08:47:20;;;;;;;4.50;3.30;;;;;;;;;;5020553;28;20056;-68
2023/01/15 08:49:47;;;;;;;5.32;3.10;;;;;;;;;;5010981;28;20160;-70
2023/01/15 08:52:13;;;;;;;4.25;2.92;;;;;;;;;;5018050;28;20079;-68
2023/01/15 08:54:38;;;;;;;5.28;3.17;;;;;;;;;;5017222;28;20082;-69
2023/01/15 08:57:04;;;;;;;4.50;2.80;;;;;;;;;;5018357;28;20133;-69
2023/01/15 08:59:29;;;;;;;5.18;3.60;;;;;;;;;;5018523;28;20041;-70
2023/01/15 09:01:55;;;;;;;4.18;3.17;;;;;;;;;;5017642;28;20077;-69
2023/01/15 09:04:21;;;;;;;4.38;3.38;;;;;;;;;;5019151;28;20061;-69
2023/01/15 09:06:48;;;;;;;2.80;2.40;;;;;;;;;;5019128;28;20041;-69
2023/01/15 09:09:13;;;;;;;5.03;2.95;;;;;;;;;;5019784;28;20049;-70
2023/01/15 09:11:40;;;;;;;2.80;2.22;;;;;;;;;;5017844;28;20046;-69
2023/01/15 09:14:12;;;;;;;5.30;3.15;;;;;;;;;;5019294;28;20085;-70
2023/01/15 09:16:37;;;;;;;8.20;3.30;;;;;;;;;;5019186;28;20045;-68
2023/01/15 09:19:05;;;;;;;5.13;3.17;;;;;;;;;;5019490;28;20056;-69
2023/01/15 09:21:30;;;;;;;8.23;3.13;;;;;;;;;;5018758;28;20053;-68
2023/01/15 09:23:56;;;;;;;4.75;3.80;;;;;;;;;;5020095;28;20087;-69
2023/01/15 09:26:24;;;;;;;6.90;4.03;;;;;;;;;;5020546;28;20041;-69
2023/01/15 09:28:50;;;;;;;5.05;3.15;;;;;;;;;;5020782;28;20052;-70
2023/01/15 09:31:15;;;;;;;5.90;3.95;;;;;;;;;;5035951;28;20057;-70
2023/01/15 09:33:40;;;;;;;4.85;3.50;;;;;;;;;;5019140;28;20114;-69
2023/01/15 09:36:14;;;;;;;3.38;2.55;;;;;;;;;;5019974;28;20409;-70
2023/01/15 09:38:40;;;;;;;2.58;1.92;;;;;;;;;;5019200;28;20049;-70
2023/01/15 09:42:03;;;;;;;4.32;2.30;;;;;;;;;;5019739;28;20068;-69
2023/01/15 09:44:32;;;;;;;3.17;2.10;;;;;;;;;;5017152;28;20550;-69
2023/01/15 09:47:10;;;;;;;3.60;2.33;;;;;;;;;;5028873;28;20483;-70
2023/01/15 09:49:53;;;;;;;2.78;2.00;;;;;;;;;;5035608;28;20057;-71
2023/01/15 09:52:46;;;;;;;6.03;2.10;;;;;;;;;;5018917;28;20041;-72
2023/01/15 09:55:18;;;;;;;1.92;1.63;;;;;;;;;;5019695;28;20053;-70
2023/01/15 09:57:48;;;;;;;2.60;1.77;;;;;;;;;;5020064;28;20072;-70
2023/01/15 10:00:19;;;;;;;5.28;1.77;;;;;;;;;;5033295;28;20569;-70
2023/01/15 10:02:53;;;;;;;1.38;1.27;;;;;;;;;;5018426;28;20434;-70
2023/01/15 10:05:27;;;;;;;1.15;0.80;;;;;;;;;;5034422;28;20558;-71
2023/01/15 10:08:11;;;;;;;0.40;0.40;;;;;;;;;;5016786;28;20053;-69
2023/01/15 10:11:15;;;;;;;0.40;0.40;;;;;;;;;;5043332;28;20053;-70
2023/01/15 10:13:47;;;;;;;0.30;0.30;;;;;;;;;;4999983;28;20065;-69
2023/01/15 10:16:21;;;;;;;0.20;0.20;;;;;;;;;;5019228;28;20041;-70
2023/01/15 10:18:46;;;;;;;0.43;0.43;;;;;;;;;;5018268;28;20391;-70
2023/01/15 10:21:46;;;;;;;0.52;0.52;;;;;;;;;;5019553;28;20546;-69
2023/01/15 10:24:44;;;;;;;0.30;0.30;;;;;;;;;;5033647;28;20056;-70
2023/01/15 10:27:21;;;;;;;0.40;0.40;;;;;;;;;;5019444;28;20327;-70
2023/01/15 10:30:12;;;;;;;0.55;0.40;;;;;;;;;;5015511;28;20566;-69
2023/01/15 10:32:49;;;;;;;3.22;0.82;;;;;;;;;;5046503;28;20111;-70
2023/01/15 10:35:39;;;;;;;1.00;0.60;;;;;;;;;;5018617;28;20045;-71
2023/01/15 10:38:14;;;;;;;0.43;0.43;;;;;;;;;;5018383;28;20045;-73
2023/01/15 10:41:01;;;;;;;1.17;0.50;;;;;;;;;;5017255;28;20045;-69
2023/01/15 10:44:04;;;;;;;0.35;0.30;;;;;;;;;;5018477;28;20137;-69
2023/01/15 10:46:37;;;;;;;1.33;0.30;;;;;;;;;;5019692;28;20261;-69
2023/01/15 10:49:13;;;;;;;0.40;0.30;;;;;;;;;;5019792;28;20045;-69
2023/01/15 10:52:14;;;;;;;3.40;0.40;;;;;;;;;;5018846;28;20547;-69
2023/01/15 10:54:47;;;;;;;0.30;0.25;;;;;;;;;;5022256;28;20457;-69
2023/01/15 10:57:29;;;;;;;0.22;0.22;;;;;;;;;;5020055;28;20056;-69
2023/01/15 10:59:59;;;;;;;0.38;0.30;;;;;;;;;;5019691;28;20045;-68
2023/01/15 11:02:33;;;;;;;0.40;0.40;;;;;;;;;;5016114;28;20199;-69
2023/01/15 11:05:01;;;;;;;0.73;0.40;;;;;;;;;;5019427;28;20187;-69
2023/01/15 11:07:37;;;;;;;0.40;0.40;;;;;;;;;;5019632;28;20468;-69
2023/01/15 11:10:09;;;;;;;0.28;0.20;;;;;;;;;;5018185;28;20029;-69
2023/01/15 11:21:01;;;;;;;;;;;;;;;;;;5021482;28;20418;-70
2023/01/15 11:23:26;;;;;;;0.30;0.30;;;;;;;;;;5020206;28;20107;-70
2023/01/15 11:25:58;;;;;;;0.28;0.28;;;;;;;;;;5022406;28;20414;-70
2023/01/15 11:28:35;;;;;;;0.30;0.30;;;;;;;;;;5020623;28;20040;-70
2023/01/15 11:31:01;;;;;;;0.20;0.20;;;;;;;;;;5021053;28;20045;-70
2023/01/15 11:33:30;;;;;;;1.40;0.43;;;;;;;;;;5020570;28;20060;-69
2023/01/15 11:35:58;;;;;;;0.30;0.30;;;;;;;;;;5020768;28;20498;-69
2023/01/15 11:38:29;;;;;;;0.30;0.25;;;;;;;;;;5021012;28;20107;-69
2023/01/15 11:41:00;;;;;;;0.20;0.20;;;;;;;;;;5021110;28;20051;-70
2023/01/15 11:52:05;;;;;;;2.90;2.28;;;;;;;;;;5022040;28;20088;-70
2023/01/15 11:54:36;;;;;;;2.58;2.35;;;;;;;;;;5022279;28;20046;-70
2023/01/15 11:57:01;;;;;;;1.98;1.85;;;;;;;;;;5021740;28;20053;-70
2023/01/15 11:59:27;;;;;;;0.60;0.60;;;;;;;;;;5022488;28;20056;-69
2023/01/15 12:02:02;;;;;;;0.95;0.60;;;;;;;;;;5021464;28;20050;-70
2023/01/15 12:04:36;;;;;;;0.32;0.32;;;;;;;;;;5022081;28;20710;-70
2023/01/15 12:07:04;;;;;;;0.40;0.40;;;;;;;;;;5022884;28;20462;-70
2023/01/15 12:09:42;;;;;;;0.80;0.80;;;;;;;;;;5021978;28;20065;-70
2023/01/15 12:12:40;;;;;;;1.35;1.25;;;;;;;;;;5021256;28;20103;-70
2023/01/15 12:15:42;;;;;;;0.50;0.50;;;;;;;;;;5017770;28;20827;-70
2023/01/15 12:18:23;;;;;;;0.77;0.45;;;;;;;;;;5004032;28;20053;-70
2023/01/15 12:20:56;;;;;;;0.60;0.60;;;;;;;;;;5022098;28;20041;-71
2023/01/15 12:23:48;;;;;;;1.05;0.70;;;;;;;;;;5021950;28;20506;-72
2023/01/15 12:26:33;;;;;;;0.50;0.50;;;;;;;;;;5021891;28;20053;-71
2023/01/15 12:29:13;;;;;;;1.45;1.35;;;;;;;;;;5021213;28;20056;-71
2023/01/15 12:31:45;;;;;;;1.90;1.27;;;;;;;;;;5021788;28;20037;-71
2023/01/15 12:34:22;;;;;;;1.85;0.77;;;;;;;;;;5021294;28;20057;-71
2023/01/15 12:37:04;;;;;;;1.63;1.52;;;;;;;;;;5021984;28;20049;-71
2023/01/15 12:39:49;;;;;;;0.57;0.55;;;;;;;;;;5022253;28;20140;-71
2023/01/15 12:45:09;;;;;;;0.75;0.73;;;;;;;;;;5021846;28;20055;-71
2023/01/15 12:47:41;;;;;;;0.30;0.30;;;;;;;;;;5021607;28;20417;-71
2023/01/15 12:50:31;;;;;;;0.55;0.55;;;;;;;;;;5021864;28;20042;-70
2023/01/15 12:53:04;;;;;;;0.80;0.52;;;;;;;;;;5043767;28;20541;-70
2023/01/15 12:55:33;;;;;;;1.13;0.80;;;;;;;;;;5036521;28;20853;-70
2023/01/15 12:58:02;;;;;;;1.27;0.98;;;;;;;;;;5021254;28;20078;-72
2023/01/15 13:00:34;;;;;;;0.22;0.22;;;;;;;;;;5020759;28;20678;-72
2023/01/15 13:03:21;;;;;;;2.67;0.80;;;;;;;;;;5020115;28;20793;-72
2023/01/15 13:05:52;;;;;;;0.82;0.70;;;;;;;;;;5021678;28;20991;-72
2023/01/15 13:08:26;;;;;;;1.20;0.73;;;;;;;;;;5020720;28;20164;-72
2023/01/15 13:10:52;;;;;;;1.48;0.68;;;;;;;;;;5021181;28;20045;-72
2023/01/15 13:13:19;;;;;;;0.50;0.50;;;;;;;;;;5020231;28;20128;-73
2023/01/15 13:15:59;;;;;;;1.88;0.93;;;;;;;;;;5021215;28;20080;-72
2023/01/15 13:18:46;;;;;;;0.40;0.40;;;;;;;;;;5020759;28;20049;-72
2023/01/15 13:21:18;;;;;;;0.60;0.60;;;;;;;;;;5020022;28;20053;-70
2023/01/15 13:24:26;;;;;;;0.88;0.88;;;;;;;;;;5020116;28;20045;-69
2023/01/15 13:27:25;;;;;;;0.40;0.40;;;;;;;;;;5047045;28;20078;-69
2023/01/15 13:30:31;;;;;;;1.17;1.08;;;;;;;;;;5020925;28;20052;-70
2023/01/15 13:33:10;;;;;;;1.17;1.08;;;;;;;;;;5045450;28;20049;-70
2023/01/15 13:35:42;;;;;;;0.73;0.55;;;;;;;;;;5020094;28;20724;-70
2023/01/15 13:38:21;;;;;;;1.08;0.90;;;;;;;;;;5019992;28;20915;-70
2023/01/15 13:40:50;;;;;;;1.08;0.80;;;;;;;;;;5019818;28;20069;-71
2023/01/15 13:43:35;;;;;;;6.43;1.83;;;;;;;;;;5020038;28;20499;-70
2023/01/15 13:46:08;;;;;;;0.60;0.60;;;;;;;;;;5020207;28;20045;-70
2023/01/15 13:48:40;;;;;;;0.75;0.75;;;;;;;;;;5019819;28;20052;-70
2023/01/15 13:51:06;;;;;;;1.02;0.70;;;;;;;;;;5020946;28;20041;-70
2023/01/15 13:53:37;;;;;;;5.97;1.77;;;;;;;;;;5020188;28;20057;-70
2023/01/15 13:56:08;;;;;;;1.23;1.00;;;;;;;;;;5020807;28;20041;-70
2023/01/15 13:58:38;;;;;;;1.48;1.02;;;;;;;;;;5019569;28;20049;-70
2023/01/15 14:01:21;;;;;;;1.20;1.10;;;;;;;;;;5020569;28;20050;-70
2023/01/15 14:04:17;;;;;;;1.52;1.10;;;;;;;;;;5019882;28;20084;-70
2023/01/15 14:06:49;;;;;;;0.75;0.75;;;;;;;;;;5031337;28;20447;-70
2023/01/15 14:09:17;;;;;;;1.23;1.10;;;;;;;;;;5019501;28;20060;-71
2023/01/15 14:12:08;;;;;;;0.40;0.40;;;;;;;;;;5020391;28;20056;-70
2023/01/15 14:15:02;;;;;;;0.45;0.45;;;;;;;;;;5035260;28;20056;-72
2023/01/15 14:17:46;;;;;;;0.88;0.68;;;;;;;;;;5011027;28;20049;-71
2023/01/15 14:20:32;;;;;;;0.75;0.65;;;;;;;;;;5019140;28;20464;-71
2023/01/15 14:23:39;;;;;;;0.75;0.68;;;;;;;;;;5019977;28;20088;-71
2023/01/15 14:26:30;;;;;;;0.45;0.45;;;;;;;;;;5035721;28;20041;-70
2023/01/15 14:29:11;;;;;;;3.78;0.63;;;;;;;;;;5031882;28;20486;-71
2023/01/15 14:31:58;;;;;;;0.80;0.80;;;;;;;;;;5019018;28;20042;-71
2023/01/15 14:34:27;;;;;;;0.52;0.52;;;;;;;;;;5019448;28;20075;-74
2023/01/15 14:36:59;;;;;;;0.50;0.50;;;;;;;;;;5020243;28;20041;-72
2023/01/15 14:39:32;;;;;;;0.70;0.70;;;;;;;;;;5020140;28;20045;-72
2023/01/15 14:45:02;;;;;;;1.10;0.75;;;;;;;;;;5045341;28;20107;-72
2023/01/15 14:47:35;;;;;;;0.68;0.65;;;;;;;;;;5020428;28;20056;-72
2023/01/15 14:50:21;;;;;;;0.40;0.40;;;;;;;;;;5020257;28;20049;-71
2023/01/15 14:52:49;;;;;;;0.65;0.60;;;;;;;;;;5063025;28;20049;-71
2023/01/15 14:55:16;;;;;;;0.63;0.60;;;;;;;;;;5023715;28;20052;-72
2023/01/15 14:57:48;;;;;;;0.40;0.40;;;;;;;;;;5038900;28;20859;-72
2023/01/15 15:00:18;;;;;;;0.30;0.30;;;;;;;;;;5022937;28;20445;-71
2023/01/15 15:02:46;;;;;;;0.80;0.63;;;;;;;;;;5022706;28;20084;-72
2023/01/15 15:05:20;;;;;;;0.40;0.40;;;;;;;;;;5022703;28;20076;-72
2023/01/15 15:07:51;;;;;;;0.70;0.70;;;;;;;;;;5023705;28;20041;-71
2023/01/15 15:10:30;;;;;;;0.40;0.40;;;;;;;;;;5023193;28;20057;-72
2023/01/15 15:13:13;;;;;;;0.50;0.50;;;;;;;;;;5022797;28;20049;-72
2023/01/15 15:15:58;;;;;;;0.50;0.50;;;;;;;;;;5022369;28;20080;-71
2023/01/15 15:19:02;;;;;;;0.55;0.55;;;;;;;;;;5023205;28;20175;-72
2023/01/15 15:21:32;;;;;;;0.43;0.43;;;;;;;;;;5008918;28;20494;-71
2023/01/15 15:24:15;;;;;;;0.63;0.63;;;;;;;;;;5022630;28;20060;-71
2023/01/15 15:26:41;;;;;;;0.80;0.80;;;;;;;;;;5050116;28;20080;-71
2023/01/15 15:29:15;;;;;;;0.47;0.47;;;;;;;;;;5023278;28;20079;-72
2023/01/15 15:31:54;;;;;;;0.52;0.52;;;;;;;;;;5023200;28;20064;-70
2023/01/15 15:34:28;;;;;;;0.50;0.50;;;;;;;;;;5037399;28;20494;-71
2023/01/15 15:36:54;;;;;;;2.00;0.70;;;;;;;;;;5022509;28;20041;-72
2023/01/15 15:39:27;;;;;;;0.77;0.40;;;;;;;;;;5038701;28;20052;-72
2023/01/15 15:50:24;;;;;;;0.73;0.73;;;;;;;;;;5022133;28;20049;-72
2023/01/15 15:52:51;;;;;;;1.00;1.00;;;;;;;;;;5022055;28;20679;-71
2023/01/15 15:55:19;;;;;;;0.45;0.45;;;;;;;;;;5023246;28;20057;-71
2023/01/15 15:57:48;;;;;;;0.50;0.50;;;;;;;;;;5022528;28;20095;-71
2023/01/15 16:00:21;;;;;;;0.57;0.57;;;;;;;;;;5020884;28;20049;-71
2023/01/15 16:02:46;;;;;;;;;;;;;;;;;;5022667;28;20517;-71
2023/01/15 16:05:17;;;;;;;0.70;0.60;;;;;;;;;;5021306;28;19925;-71
2023/01/15 16:07:43;;;;;;;1.23;1.13;;;;;;;;;;5022507;28;20045;-71